Terminal Aerodrome Forecast
Issued by NWS Huntsville, AL

Home | Current Version | Previous Version | Text Only | Print | Product List | Glossary On
Versions: 1 2 3 4 5 6 7 8 9 10 11 12 13 14 15 16 17 18 19 20 21 22 23 24 25 26 27 28 29 30
000
FTUS44 KHUN 020521
TAFHSV
TAF
KHSV 020521Z 0206/0306 VRB03KT P6SM SCT100 BKN250
      TEMPO 0210/0212 4SM BR SCT015
     FM021500 VRB04KT P6SM VCSH SCT040 BKN090
     FM021800 14007KT P6SM VCTS SCT035CB BKN070
     FM030000 VRB03KT P6SM SCT070 BKN120=

USA.gov is the U.S. government's official web portal to all federal, state and local government web resources and services.